Time;durP1;ratioP1;P1;durP2;ratioP2;P2;SDS_P1;SDS_P2;PMS_P1;PMS_P2;Temp;Humidity;BMP_temperature;BMP_pressure;BME280_temperature;BME280_humidity;BME280_pressure;Samples;Min_cycle;Max_cycle;Signal;HPM_P1;HPM_P2
2021/11/13 00:00:14;;;;;;;;;;;;;;;19.54;56.56;101586.47;5063924;28;1749;-36
2021/11/13 00:02:40;;;;;;;;;;;;;;;19.32;56.21;101576.50;5066313;28;1771;-36
2021/11/13 00:05:07;;;;;;;;;;;;;;;19.23;56.24;101578.06;5065366;28;1839;-36
2021/11/13 00:07:35;;;;;;;;;;;;;;;19.13;57.19;101571.72;5062286;28;1740;-36
2021/11/13 00:10:02;;;;;;;;;;;;;;;19.19;57.93;101582.81;5071264;28;1381;-36
2021/11/13 00:12:28;;;;;;;;;;;;;;;20.03;55.01;101577.25;5063005;28;1539;-36
2021/11/13 00:14:55;;;;;;;;;;;;;;;19.91;55.53;101567.47;5067589;28;1549;-36
2021/11/13 00:17:21;;;;;;;;;;;;;;;19.52;55.60;101569.59;5067344;28;1898;-36
2021/11/13 00:19:48;;;;;;;;;;;;;;;19.31;56.13;101569.44;5066890;28;1501;-36
2021/11/13 00:22:15;;;;;;;;;;;;;;;19.14;57.46;101578.75;5067252;28;1422;-36
2021/11/13 00:24:43;;;;;;;;;;;;;;;19.14;56.81;101576.97;5064170;28;1793;-36
2021/11/13 00:27:09;;;;;;;;;;;;;;;19.55;56.01;101588.16;5064917;28;1970;-36
2021/11/13 00:29:36;;;;;;;;;;;;;;;20.12;54.26;101587.25;5060969;28;1561;-36
2021/11/13 00:32:02;;;;;;;;;;;;;;;19.57;55.39;101575.47;5061966;28;1518;-36
2021/11/13 00:34:29;;;;;;;;;;;;;;;19.32;56.30;101572.03;5067827;28;1939;-36
2021/11/13 00:36:55;;;;;;;;;;;;;;;19.14;57.88;101586.81;5066059;28;1934;-36
2021/11/13 00:39:22;;;;;;;;;;;;;;;19.10;56.23;101572.81;5058517;28;1579;-36
2021/11/13 00:41:50;;;;;;;;;;;;;;;19.14;56.97;101562.69;5062801;28;1564;-36
2021/11/13 00:44:16;;;;;;;;;;;;;;;20.30;54.16;101574.16;5061705;28;1507;-36
2021/11/13 00:46:43;;;;;;;;;;;;;;;19.75;55.51;101571.38;5068538;28;1487;-36
2021/11/13 00:49:09;;;;;;;;;;;;;;;19.42;56.48;101583.75;5064807;28;1785;-36
2021/11/13 00:51:37;;;;;;;;;;;;;;;19.23;57.43;101567.34;5062159;28;1905;-36
2021/11/13 00:54:04;;;;;;;;;;;;;;;19.14;57.24;101565.34;5062950;28;1446;-36
2021/11/13 00:56:30;;;;;;;;;;;;;;;19.14;56.25;101573.41;5067266;28;1983;-35
2021/11/13 00:58:58;;;;;;;;;;;;;;;19.76;55.33;101573.09;5061308;28;1762;-36
2021/11/13 01:01:24;;;;;;;;;;;;;;;19.97;54.50;101557.09;5066351;28;1550;-36
2021/11/13 01:03:51;;;;;;;;;;;;;;;19.51;55.23;101563.38;5064118;28;1554;-36
2021/11/13 01:06:18;;;;;;;;;;;;;;;19.30;55.95;101567.72;5063374;28;1633;-36
2021/11/13 01:08:47;;;;;;;;;;;;;;;19.11;57.86;101565.59;5062796;28;1553;-36
2021/11/13 01:11:14;;;;;;;;;;;;;;;19.07;56.39;101552.44;5064499;28;1556;-36
2021/11/13 01:13:40;;;;;;;;;;;;;;;19.52;54.76;101572.28;5058711;28;1536;-36
2021/11/13 01:16:08;;;;;;;;;;;;;;;19.98;54.76;101568.72;5061267;28;1723;-37
2021/11/13 01:18:35;;;;;;;;;;;;;;;19.52;55.60;101573.16;5065890;28;1906;-36
2021/11/13 01:21:01;;;;;;;;;;;;;;;19.28;56.15;101575.91;5060500;28;1709;-36
2021/11/13 01:23:28;;;;;;;;;;;;;;;19.10;56.65;101569.25;5064684;28;1536;-36
2021/11/13 01:25:54;;;;;;;;;;;;;;;19.06;56.43;101572.19;5060441;28;1538;-36
2021/11/13 01:28:21;;;;;;;;;;;;;;;19.06;56.85;101571.34;5067800;28;1419;-36
2021/11/13 01:30:47;;;;;;;;;;;;;;;20.20;53.69;101555.25;5066190;28;1466;-36
2021/11/13 01:33:15;;;;;;;;;;;;;;;19.74;54.52;101582.25;5062634;28;1503;-36
2021/11/13 01:35:41;;;;;;;;;;;;;;;19.38;55.84;101563.50;5065647;28;1858;-36
2021/11/13 01:38:08;;;;;;;;;;;;;;;19.17;56.06;101567.81;5065572;28;1973;-36
2021/11/13 01:40:35;;;;;;;;;;;;;;;19.06;56.68;101571.34;5067302;28;1530;-36
2021/11/13 01:43:01;;;;;;;;;;;;;;;19.08;57.37;101567.56;5066349;28;1510;-37
2021/11/13 01:45:28;;;;;;;;;;;;;;;19.96;53.80;101566.16;5062599;28;1646;-36
2021/11/13 01:47:55;;;;;;;;;;;;;;;19.82;54.02;101569.94;5064997;28;1533;-36
2021/11/13 01:50:24;;;;;;;;;;;;;;;19.44;55.10;101580.94;5063627;28;1566;-36
2021/11/13 01:52:51;;;;;;;;;;;;;;;19.17;57.06;101562.47;5058107;28;1579;-36
2021/11/13 01:55:18;;;;;;;;;;;;;;;19.06;56.38;101560.63;5064990;28;1342;-36
2021/11/13 01:57:47;;;;;;;;;;;;;;;19.07;56.80;101568.50;5061163;28;1993;-36
2021/11/13 02:00:15;;;;;;;;;;;;;;;20.14;53.18;101569.19;5064780;28;1951;-36
2021/11/13 02:02:42;;;;;;;;;;;;;;;19.69;54.32;101571.81;5065295;28;1545;-36
2021/11/13 02:05:08;;;;;;;;;;;;;;;19.41;55.48;101591.91;5065643;28;1624;-36
2021/11/13 02:07:36;;;;;;;;;;;;;;;19.15;57.05;101572.44;5054773;28;1647;-36
2021/11/13 02:10:03;;;;;;;;;;;;;;;19.10;55.36;101575.50;5071338;28;1535;-36
2021/11/13 02:12:30;;;;;;;;;;;;;;;19.25;55.36;101582.34;5065202;28;2017;-36
2021/11/13 02:14:56;;;;;;;;;;;;;;;20.16;53.86;101579.81;5061775;28;1516;-36
2021/11/13 02:17:23;;;;;;;;;;;;;;;19.53;55.68;101580.22;5066415;28;1898;-36
2021/11/13 02:19:51;;;;;;;;;;;;;;;19.27;56.47;101585.75;5065730;28;1634;-36
2021/11/13 02:22:17;;;;;;;;;;;;;;;19.08;56.38;101583.63;5062059;28;1530;-36
2021/11/13 02:24:44;;;;;;;;;;;;;;;19.11;56.37;101587.06;5069113;28;1631;-36
2021/11/13 02:27:11;;;;;;;;;;;;;;;19.61;54.92;101576.94;5069630;28;1583;-36
2021/11/13 02:29:37;;;;;;;;;;;;;;;19.94;54.56;101580.69;5068068;28;1463;-36
2021/11/13 02:32:04;;;;;;;;;;;;;;;19.43;55.18;101581.91;5069137;28;1459;-37
2021/11/13 02:34:30;;;;;;;;;;;;;;;19.25;55.88;101602.94;5065426;28;1549;-36
2021/11/13 02:36:58;;;;;;;;;;;;;;;19.10;55.66;101593.38;5067029;28;1906;-36
2021/11/13 02:39:25;;;;;;;;;;;;;;;19.16;55.23;101603.63;5068217;28;1350;-36
2021/11/13 02:41:51;;;;;;;;;;;;;;;20.10;53.76;101589.22;5068562;28;1899;-36
2021/11/13 02:44:19;;;;;;;;;;;;;;;19.62;54.85;101597.44;5065763;28;1482;-36
2021/11/13 02:46:45;;;;;;;;;;;;;;;19.31;55.32;101590.91;5066423;28;1571;-36
2021/11/13 02:49:13;;;;;;;;;;;;;;;19.12;56.11;101591.44;5065459;28;1660;-36
2021/11/13 02:51:39;;;;;;;;;;;;;;;19.06;56.21;101598.13;5064657;28;1568;-36
2021/11/13 02:54:07;;;;;;;;;;;;;;;19.10;55.47;101580.84;5064109;28;1542;-36
2021/11/13 02:56:33;;;;;;;;;;;;;;;20.13;52.63;101596.16;5065292;28;1619;-36
2021/11/13 02:59:00;;;;;;;;;;;;;;;19.54;54.60;101592.66;5068741;28;1995;-36
2021/11/13 03:01:26;;;;;;;;;;;;;;;19.30;55.04;101605.28;5183894;22;3567;-36
2021/11/13 03:03:54;;;;;;;;;;;;;;;19.03;57.08;101580.44;5108063;28;1728;-36
2021/11/13 03:06:21;;;;;;;;;;;;;;;19.04;56.19;101589.34;5109532;28;1597;-36
2021/11/13 03:08:50;;;;;;;;;;;;;;;19.64;54.47;101592.81;5109916;28;1950;-36
2021/11/13 03:11:19;;;;;;;;;;;;;;;19.82;54.38;101586.03;5099179;28;1590;-36
2021/11/13 03:13:46;;;;;;;;;;;;;;;19.37;55.33;101601.16;5110996;28;1458;-36
2021/11/13 03:16:14;;;;;;;;;;;;;;;19.18;55.90;101602.56;5109358;28;1683;-36
2021/11/13 03:18:41;;;;;;;;;;;;;;;19.08;55.22;101597.03;5109043;28;1997;-36
2021/11/13 03:21:08;;;;;;;;;;;;;;;19.37;54.57;101606.53;5105708;28;2138;-37
2021/11/13 03:23:35;;;;;;;;;;;;;;;20.08;53.52;101618.00;5108338;28;1473;-36
2021/11/13 03:26:04;;;;;;;;;;;;;;;19.50;55.41;101617.16;5106832;28;1747;-36
2021/11/13 03:28:34;;;;;;;;;;;;;;;19.21;54.98;101596.09;5104931;28;1515;-36
2021/11/13 03:31:02;;;;;;;;;;;;;;;18.98;56.64;101606.75;5109754;28;1701;-36
2021/11/13 03:33:29;;;;;;;;;;;;;;;18.99;56.50;101632.56;5109770;28;1460;-36
2021/11/13 03:35:55;;;;;;;;;;;;;;;18.96;56.84;101610.50;5108818;28;1913;-36
2021/11/13 03:38:22;;;;;;;;;;;;;;;18.87;56.44;101614.72;5109165;28;1996;-36
2021/11/13 03:40:49;;;;;;;;;;;;;;;18.90;56.79;101614.50;5101844;28;1569;-36
2021/11/13 03:43:17;;;;;;;;;;;;;;;19.47;54.72;101619.09;5104361;28;1545;-36
2021/11/13 03:45:46;;;;;;;;;;;;;;;19.22;57.16;101613.94;5107305;28;1403;-36
2021/11/13 03:48:12;;;;;;;;;;;;;;;19.02;56.70;101610.03;5109189;28;2323;-36
2021/11/13 03:50:39;;;;;;;;;;;;;;;18.93;57.27;101619.63;5109117;28;1490;-36
2021/11/13 03:53:06;;;;;;;;;;;;;;;19.07;56.93;101616.75;5108042;28;1598;-36
2021/11/13 03:55:32;;;;;;;;;;;;;;;19.51;55.63;101624.25;5101861;28;1638;-36
2021/11/13 03:57:59;;;;;;;;;;;;;;;19.18;57.06;101620.47;5107903;28;1941;-36
2021/11/13 04:00:27;;;;;;;;;;;;;;;18.97;57.28;101625.63;5107210;28;1798;-36
2021/11/13 04:02:55;;;;;;;;;;;;;;;18.88;57.15;101622.66;5108270;28;1894;-36
2021/11/13 04:05:21;;;;;;;;;;;;;;;19.22;56.96;101616.59;5108346;28;1523;-36
2021/11/13 04:07:48;;;;;;;;;;;;;;;19.39;55.92;101626.88;5109157;28;1456;-36
2021/11/13 04:10:15;;;;;;;;;;;;;;;19.10;57.91;101609.47;5108700;28;1499;-36
2021/11/13 04:12:42;;;;;;;;;;;;;;;18.92;57.99;101628.66;5106702;28;1657;-36
2021/11/13 04:15:09;;;;;;;;;;;;;;;18.87;57.64;101625.44;5108137;28;1572;-36
2021/11/13 04:17:36;;;;;;;;;;;;;;;19.26;57.07;101626.97;5108497;28;1922;-36
2021/11/13 04:20:04;;;;;;;;;;;;;;;19.30;57.69;101626.72;5104730;28;1516;-36
2021/11/13 04:22:30;;;;;;;;;;;;;;;19.06;57.76;101630.31;5101914;28;1766;-36
2021/11/13 04:24:57;;;;;;;;;;;;;;;18.89;58.23;101634.22;5106668;28;1480;-36
2021/11/13 04:27:24;;;;;;;;;;;;;;;18.85;58.25;101641.63;5107567;28;1437;-36
2021/11/13 04:29:50;;;;;;;;;;;;;;;19.34;56.63;101623.72;5107516;28;1698;-36
2021/11/13 04:32:16;;;;;;;;;;;;;;;19.25;56.73;101625.25;5107694;28;1650;-36
2021/11/13 04:34:48;;;;;;;;;;;;;;;19.05;57.75;101642.84;5106900;28;1469;-36
2021/11/13 04:37:17;;;;;;;;;;;;;;;18.90;58.49;101641.31;5107397;28;1787;-36
2021/11/13 04:39:43;;;;;;;;;;;;;;;18.85;57.73;101648.81;5096378;28;1909;-36
2021/11/13 04:42:10;;;;;;;;;;;;;;;19.48;56.99;101636.91;5107248;28;1496;-36
2021/11/13 04:44:36;;;;;;;;;;;;;;;19.23;57.78;101650.47;5105392;28;1776;-36
2021/11/13 04:47:03;;;;;;;;;;;;;;;19.00;58.15;101641.47;5108057;28;1495;-36
2021/11/13 04:49:30;;;;;;;;;;;;;;;18.85;58.79;101644.31;5101724;28;1837;-36
2021/11/13 04:51:56;;;;;;;;;;;;;;;18.82;57.91;101643.69;5107773;28;1543;-36
2021/11/13 04:54:24;;;;;;;;;;;;;;;19.41;56.74;101634.81;5100299;28;1421;-36
2021/11/13 04:56:50;;;;;;;;;;;;;;;19.23;57.83;101634.38;5107669;28;1532;-36
2021/11/13 04:59:17;;;;;;;;;;;;;;;18.99;58.67;101643.28;5107664;28;1906;-36
2021/11/13 05:01:43;;;;;;;;;;;;;;;18.84;58.49;101633.69;5096729;28;1614;-36
2021/11/13 05:04:10;;;;;;;;;;;;;;;19.03;57.33;101625.16;5094396;28;1577;-36
2021/11/13 05:06:36;;;;;;;;;;;;;;;19.43;56.86;101638.22;5092763;28;1725;-36
2021/11/13 05:09:03;;;;;;;;;;;;;;;19.09;58.13;101646.16;5089057;28;1610;-36
2021/11/13 05:11:31;;;;;;;;;;;;;;;18.93;58.88;101659.84;5093167;28;1588;-36
2021/11/13 05:13:57;;;;;;;;;;;;;;;18.81;58.17;101658.06;5095239;28;1670;-36
2021/11/13 05:16:23;;;;;;;;;;;;;;;19.14;57.58;101651.16;5093621;28;1862;-36
2021/11/13 05:18:50;;;;;;;;;;;;;;;19.32;57.21;101657.84;5094398;28;1996;-36
2021/11/13 05:21:17;;;;;;;;;;;;;;;19.08;57.89;101655.19;5095946;28;1442;-36
2021/11/13 05:23:43;;;;;;;;;;;;;;;18.89;58.36;101658.34;5092522;28;1545;-36
2021/11/13 05:26:10;;;;;;;;;;;;;;;18.84;58.07;101674.78;5098690;28;1484;-36
2021/11/13 05:28:38;;;;;;;;;;;;;;;19.28;57.71;101683.19;5089866;28;1649;-36
2021/11/13 05:31:05;;;;;;;;;;;;;;;19.26;58.31;101680.59;5091551;28;1486;-36
2021/11/13 05:33:32;;;;;;;;;;;;;;;19.03;58.98;101666.22;5096195;28;1667;-36
2021/11/13 05:35:58;;;;;;;;;;;;;;;18.87;59.18;101673.69;5088860;28;1430;-36
2021/11/13 05:38:25;;;;;;;;;;;;;;;18.80;58.71;101675.97;5094398;28;1905;-36
2021/11/13 05:40:51;;;;;;;;;;;;;;;19.32;57.23;101684.66;5085471;28;2253;-36
2021/11/13 05:43:18;;;;;;;;;;;;;;;19.19;58.51;101681.19;5092107;28;2241;-36
2021/11/13 05:45:48;;;;;;;;;;;;;;;18.98;59.22;101680.94;5093482;28;1489;-36
2021/11/13 05:48:14;;;;;;;;;;;;;;;18.83;58.76;101693.66;5096085;28;1530;-36
2021/11/13 05:50:41;;;;;;;;;;;;;;;18.82;59.18;101679.41;5090478;28;1552;-36
2021/11/13 05:53:07;;;;;;;;;;;;;;;19.44;57.82;101689.09;5087471;28;1679;-36
2021/11/13 05:55:35;;;;;;;;;;;;;;;19.52;56.78;101684.94;5088000;28;1649;-36
2021/11/13 05:58:01;;;;;;;;;;;;;;;19.30;58.16;101691.09;5090633;28;1901;-36
2021/11/13 06:00:28;;;;;;;;;;;;;;;19.21;57.66;101703.38;5080014;28;2674;-36
2021/11/13 06:02:56;;;;;;;;;;;;;;;19.04;59.02;101702.78;5061760;27;10505;-36
2021/11/13 06:05:23;;;;;;;;;;;;;;;19.00;58.18;101712.03;5086527;27;11350;-36
2021/11/13 06:07:49;;;;;;;;;;;;;;;18.99;59.07;101718.34;5119993;27;1613;-35
2021/11/13 06:10:17;;;;;;;;;;;;;;;18.96;58.57;101699.81;5121753;27;1470;-36
2021/11/13 06:12:43;;;;;;;;;;;;;;;19.25;58.96;101686.06;5126836;27;1503;-36
2021/11/13 06:15:11;;;;;;;;;;;;;;;19.78;56.88;101713.38;5119844;27;1857;-36
2021/11/13 06:17:37;;;;;;;;;;;;;;;19.76;57.44;101707.28;5121579;27;1424;-37
2021/11/13 06:20:06;;;;;;;;;;;;;;;19.70;57.43;101721.13;5122925;27;2004;-36
2021/11/13 06:22:33;;;;;;;;;;;;;;;19.50;57.83;101705.69;5125561;27;1553;-36
2021/11/13 06:24:59;;;;;;;;;;;;;;;19.66;57.05;101716.97;5117558;27;1539;-37
2021/11/13 06:27:26;;;;;;;;;;;;;;;19.86;57.29;101718.16;5122711;27;1578;-37
2021/11/13 06:29:52;;;;;;;;;;;;;;;20.16;56.59;101717.63;5123926;27;1634;-36
2021/11/13 06:32:18;;;;;;;;;;;;;;;20.06;56.90;101705.88;5127028;27;1605;-36
2021/11/13 06:34:45;;;;;;;;;;;;;;;19.58;58.62;101720.25;5125516;27;1537;-36
2021/11/13 06:37:13;;;;;;;;;;;;;;;19.61;58.42;101719.16;5122702;27;1531;-36
2021/11/13 06:39:39;;;;;;;;;;;;;;;20.04;57.17;101706.00;5127831;27;1973;-36
2021/11/13 06:42:06;;;;;;;;;;;;;;;20.32;57.59;101744.13;5124472;27;1741;-36
2021/11/13 06:44:32;;;;;;;;;;;;;;;20.42;56.77;101709.34;5124352;27;1498;-37
2021/11/13 06:46:59;;;;;;;;;;;;;;;20.61;56.91;101715.00;5125961;27;1640;-36
2021/11/13 06:49:25;;;;;;;;;;;;;;;20.60;57.39;101721.31;5127146;27;1749;-36
2021/11/13 06:52:00;;;;;;;;;;;;;;;20.31;56.53;101709.31;5121171;27;1674;-36
2021/11/13 06:54:28;;;;;;;;;;;;;;;19.90;57.77;101716.09;5121224;28;1311;-36
2021/11/13 06:56:55;;;;;;;;;;;;;;;20.25;58.56;101710.66;5123156;27;1606;-36
2021/11/13 06:59:22;;;;;;;;;;;;;;;20.49;57.72;101715.06;5128962;27;2012;-36
2021/11/13 07:01:48;;;;;;;;;;;;;;;20.27;58.41;101714.94;5130111;27;1810;-37
2021/11/13 07:04:15;;;;;;;;;;;;;;;19.88;58.51;101735.00;5130589;27;1502;-36
2021/11/13 07:06:41;;;;;;;;;;;;;;;19.90;58.48;101703.53;5129413;27;1470;-37
2021/11/13 07:09:08;;;;;;;;;;;;;;;20.20;57.46;101737.03;5129724;27;1539;-36
2021/11/13 07:11:36;;;;;;;;;;;;;;;20.09;58.92;101743.22;5126952;27;1618;-36
2021/11/13 07:14:04;;;;;;;;;;;;;;;19.79;59.42;101719.59;5124234;27;1487;-36
2021/11/13 07:16:31;;;;;;;;;;;;;;;19.81;58.91;101712.28;5129408;27;1482;-36
2021/11/13 07:18:57;;;;;;;;;;;;;;;20.12;58.72;101716.16;5127682;27;1941;-36
2021/11/13 07:21:24;;;;;;;;;;;;;;;19.99;58.54;101712.69;5129235;27;1650;-36
2021/11/13 07:23:51;;;;;;;;;;;;;;;19.67;60.02;101711.47;5129944;27;1318;-36
2021/11/13 07:26:17;;;;;;;;;;;;;;;19.66;59.29;101712.47;5128493;27;1546;-36
2021/11/13 07:28:48;;;;;;;;;;;;;;;19.97;58.04;101714.66;5126329;27;1541;-36
2021/11/13 07:31:16;;;;;;;;;;;;;;;20.12;57.80;101724.19;5125788;27;1861;-36
2021/11/13 07:33:43;;;;;;;;;;;;;;;19.69;59.73;101692.56;5128904;27;1513;-36
2021/11/13 07:36:10;;;;;;;;;;;;;;;19.57;59.76;101707.78;5127234;27;1521;-36
2021/11/13 07:38:39;;;;;;;;;;;;;;;19.94;58.34;101693.41;5130403;27;1909;-37
2021/11/13 07:41:06;;;;;;;;;;;;;;;20.04;58.58;101702.47;5127899;27;1544;-36
2021/11/13 07:43:32;;;;;;;;;;;;;;;19.68;57.01;101697.09;5127957;27;1671;-36
2021/11/13 07:46:00;;;;;;;;;;;;;;;19.62;58.69;101702.94;5129147;27;1704;-36
2021/11/13 07:48:29;;;;;;;;;;;;;;;19.91;58.90;101705.22;5129093;27;1800;-37
2021/11/13 07:50:59;;;;;;;;;;;;;;;20.24;58.60;101709.81;5125128;27;1487;-36
2021/11/13 07:53:26;;;;;;;;;;;;;;;20.10;59.26;101699.31;5125767;27;1504;-36
2021/11/13 07:55:53;;;;;;;;;;;;;;;19.72;60.37;101697.75;5125081;27;2236;-36
2021/11/13 07:58:19;;;;;;;;;;;;;;;19.80;59.66;101703.38;5128694;27;1711;-37
2021/11/13 08:00:46;;;;;;;;;;;;;;;20.03;59.35;101698.06;5123084;27;1963;-37
2021/11/13 08:03:17;;;;;;;;;;;;;;;19.79;59.88;101696.28;5129827;27;1543;-36
2021/11/13 08:05:43;;;;;;;;;;;;;;;19.59;59.68;101696.94;5131576;27;2017;-37
2021/11/13 08:08:12;;;;;;;;;;;;;;;19.51;60.00;101694.00;5129786;27;2044;-37
2021/11/13 08:10:46;;;;;;;;;;;;;;;19.35;59.84;101688.94;5122767;27;1549;-36
2021/11/13 08:13:15;;;;;;;;;;;;;;;19.33;59.75;101707.81;5131272;27;1504;-36
2021/11/13 08:15:42;;;;;;;;;;;;;;;19.65;58.84;101693.78;5127393;27;1577;-36
2021/11/13 08:18:09;;;;;;;;;;;;;;;19.97;58.76;101706.59;5128626;27;1860;-36
2021/11/13 08:20:37;;;;;;;;;;;;;;;19.61;59.43;101705.72;5125822;27;1929;-37
2021/11/13 08:23:08;;;;;;;;;;;;;;;19.41;60.36;101705.41;5125058;27;1675;-37
2021/11/13 08:25:35;;;;;;;;;;;;;;;19.70;59.25;101710.41;5128711;27;1604;-37
2021/11/13 08:28:01;;;;;;;;;;;;;;;19.65;60.37;101712.56;5125767;27;1601;-36
2021/11/13 08:30:29;;;;;;;;;;;;;;;19.45;60.63;101695.31;5128671;27;1509;-37
2021/11/13 08:32:56;;;;;;;;;;;;;;;19.45;59.97;101682.75;5128611;27;1666;-36
2021/11/13 08:35:22;;;;;;;;;;;;;;;19.89;58.72;101679.50;5127234;27;1661;-36
2021/11/13 08:37:51;;;;;;;;;;;;;;;19.83;59.74;101696.91;5122989;27;1694;-36
2021/11/13 08:40:17;;;;;;;;;;;;;;;19.51;59.80;101685.94;5123660;27;1905;-38
2021/11/13 08:42:46;;;;;;;;;;;;;;;19.46;59.47;101675.56;5125314;27;1385;-37
2021/11/13 08:45:18;;;;;;;;;;;;;;;19.85;59.65;101681.56;5127908;27;1873;-37
2021/11/13 08:47:45;;;;;;;;;;;;;;;19.84;59.64;101690.59;5129041;27;1724;-36
2021/11/13 08:50:17;;;;;;;;;;;;;;;19.56;60.47;101681.09;5128156;27;1924;-36
2021/11/13 08:52:46;;;;;;;;;;;;;;;19.55;59.05;101674.00;5127115;27;1632;-36
2021/11/13 08:55:14;;;;;;;;;;;;;;;19.86;58.23;101694.84;5123316;27;1944;-36
2021/11/13 08:57:41;;;;;;;;;;;;;;;19.96;58.58;101683.41;5128357;27;1645;-36
2021/11/13 09:02:51;;;;;;;;;;;;;;;19.52;59.40;101669.75;5127011;27;2450;-37
2021/11/13 09:05:18;;;;;;;;;;;;;;;19.90;59.68;101683.91;5129500;27;1560;-37
2021/11/13 09:10:30;;;;;;;;;;;;;;;19.33;60.83;101674.78;5122801;27;2390;-36
2021/11/13 09:12:57;;;;;;;;;;;;;;;19.34;60.99;101666.63;5125668;27;1380;-36
2021/11/13 09:15:25;;;;;;;;;;;;;;;19.77;58.99;101674.09;5119369;27;1662;-37
2021/11/13 09:17:52;;;;;;;;;;;;;;;19.39;61.32;101669.78;5127178;27;1652;-36
2021/11/13 09:20:19;;;;;;;;;;;;;;;19.26;60.86;101679.75;5125414;27;2002;-36
2021/11/13 09:22:45;;;;;;;;;;;;;;;19.64;60.48;101668.78;5126837;27;1597;-37
2021/11/13 09:25:12;;;;;;;;;;;;;;;19.88;58.59;101686.69;5112528;27;1318;-36
2021/11/13 09:27:41;;;;;;;;;;;;;;;19.43;61.31;101665.06;5127825;27;2235;-36
2021/11/13 09:30:09;;;;;;;;;;;;;;;19.35;60.06;101662.94;5126501;27;1839;-36
2021/11/13 09:32:36;;;;;;;;;;;;;;;19.74;60.18;101674.34;5117290;27;1736;-36
2021/11/13 09:35:03;;;;;;;;;;;;;;;19.67;59.92;101686.47;5127260;27;1971;-36
2021/11/13 09:37:32;;;;;;;;;;;;;;;19.27;60.26;101668.03;5121703;27;1565;-36
2021/11/13 09:39:58;;;;;;;;;;;;;;;19.38;60.04;101668.09;5120790;27;1925;-37
2021/11/13 09:42:32;;;;;;;;;;;;;;;19.81;59.20;101654.09;5127997;27;1873;-37
2021/11/13 09:45:00;;;;;;;;;;;;;;;19.60;60.87;101671.84;5130918;27;1568;-36
2021/11/13 09:47:27;;;;;;;;;;;;;;;19.35;61.25;101660.28;5128705;27;1763;-36
2021/11/13 09:49:54;;;;;;;;;;;;;;;19.56;59.54;101678.41;5126323;27;1515;-37
2021/11/13 09:52:21;;;;;;;;;;;;;;;19.97;59.43;101660.94;5128055;27;1786;-37
2021/11/13 09:54:47;;;;;;;;;;;;;;;19.66;60.38;101649.91;5128009;27;1081;-37
2021/11/13 09:57:14;;;;;;;;;;;;;;;19.34;59.00;101642.47;5124550;27;1474;-37
2021/11/13 09:59:40;;;;;;;;;;;;;;;19.46;59.84;101654.97;5125879;27;1905;-36
2021/11/13 10:02:08;;;;;;;;;;;;;;;19.68;58.95;101656.84;5126318;27;1797;-36
2021/11/13 10:04:35;;;;;;;;;;;;;;;19.47;59.98;101643.25;5128003;27;1604;-36
2021/11/13 10:07:04;;;;;;;;;;;;;;;19.37;59.47;101652.97;5126145;27;1838;-36
2021/11/13 10:09:31;;;;;;;;;;;;;;;19.66;58.54;101649.91;5129096;27;2189;-36
2021/11/13 10:11:57;;;;;;;;;;;;;;;19.98;58.70;101633.16;5128067;27;1491;-36
2021/11/13 10:14:34;;;;;;;;;;;;;;;19.86;59.18;101653.75;5128200;27;1621;-36
2021/11/13 10:17:00;;;;;;;;;;;;;;;19.61;60.49;101639.50;5125789;28;1583;-36
2021/11/13 10:19:29;;;;;;;;;;;;;;;19.63;59.56;101642.91;5121760;27;1986;-36
2021/11/13 10:21:57;;;;;;;;;;;;;;;20.07;59.27;101637.75;5126936;27;1808;-37
2021/11/13 10:24:24;;;;;;;;;;;;;;;19.86;60.24;101624.22;5121595;27;1712;-37
2021/11/13 10:26:52;;;;;;;;;;;;;;;19.63;60.25;101639.38;5123306;28;1769;-36
2021/11/13 10:29:19;;;;;;;;;;;;;;;19.60;60.81;101631.59;5126808;27;1670;-36
2021/11/13 10:31:47;;;;;;;;;;;;;;;20.07;60.65;101621.66;5125475;27;1711;-36
2021/11/13 10:34:14;;;;;;;;;;;;;;;20.01;60.52;101619.47;5128204;27;1757;-36
2021/11/13 10:36:43;;;;;;;;;;;;;;;19.79;60.75;101615.78;5129592;27;1693;-37
2021/11/13 10:39:12;;;;;;;;;;;;;;;19.53;60.96;101619.59;5126707;27;1468;-36
2021/11/13 10:41:45;;;;;;;;;;;;;;;19.88;60.51;101605.31;5125730;27;1902;-36
2021/11/13 10:44:12;;;;;;;;;;;;;;;20.09;58.81;101603.59;5128225;27;1546;-37
2021/11/13 10:46:41;;;;;;;;;;;;;;;19.77;60.23;101635.66;5131509;27;1428;-36
2021/11/13 10:49:08;;;;;;;;;;;;;;;19.50;61.45;101618.03;5122734;27;1603;-36
2021/11/13 10:51:35;;;;;;;;;;;;;;;19.65;60.43;101622.19;5131660;27;1639;-36
2021/11/13 10:54:12;;;;;;;;;;;;;;;20.02;58.97;101597.88;5131182;27;1642;-36
2021/11/13 10:56:54;;;;;;;;;;;;;;;19.83;60.54;101609.19;5133632;27;1941;-36
2021/11/13 10:59:32;;;;;;;;;;;;;;;19.55;61.81;101607.78;5129474;27;1804;-36
2021/11/13 11:02:08;;;;;;;;;;;;;;;19.71;61.23;101604.78;5096114;27;10748;-36
2021/11/13 11:04:48;;;;;;;;;;;;;;;20.08;59.12;101606.44;5133097;27;1526;-36
2021/11/13 11:07:16;;;;;;;;;;;;;;;19.89;59.72;101615.06;5129956;27;1802;-36
2021/11/13 11:09:58;;;;;;;;;;;;;;;19.71;61.34;101596.75;5128463;27;1513;-37
2021/11/13 11:12:28;;;;;;;;;;;;;;;19.66;61.45;101594.41;5128856;27;1955;-36
2021/11/13 11:14:55;;;;;;;;;;;;;;;20.03;60.07;101596.91;5129348;27;1502;-36
2021/11/13 11:17:26;;;;;;;;;;;;;;;19.82;60.57;101588.72;5129982;27;1514;-36
2021/11/13 11:19:53;;;;;;;;;;;;;;;19.61;61.93;101593.03;5132668;27;1949;-37
2021/11/13 11:22:24;;;;;;;;;;;;;;;19.30;62.70;101606.16;5127967;27;1423;-36
2021/11/13 11:25:01;;;;;;;;;;;;;;;19.76;61.34;101607.97;5133217;27;1240;-36
2021/11/13 11:27:29;;;;;;;;;;;;;;;19.84;60.35;101586.75;5124847;27;1750;-36
2021/11/13 11:29:57;;;;;;;;;;;;;;;19.58;60.87;101601.34;5119358;27;1443;-36
2021/11/13 11:32:25;;;;;;;;;;;;;;;19.38;61.68;101587.63;5128163;27;1628;-36
2021/11/13 11:40:31;;;;;;;;;;;;;;;19.57;61.67;101591.56;5131263;27;2161;-36
2021/11/13 11:43:06;;;;;;;;;;;;;;;19.42;60.93;101589.09;5122390;27;1537;-36
2021/11/13 11:45:49;;;;;;;;;;;;;;;19.93;59.58;101585.16;5134097;27;1161;-36
2021/11/13 11:48:17;;;;;;;;;;;;;;;19.77;60.05;101572.09;5134238;27;1064;-36
2021/11/13 11:50:52;;;;;;;;;;;;;;;19.54;61.34;101581.09;5133380;27;1487;-36
2021/11/13 11:53:18;;;;;;;;;;;;;;;19.41;61.41;101575.81;5133332;27;1709;-36
2021/11/13 11:55:46;;;;;;;;;;;;;;;19.86;60.75;101579.44;5134219;27;2026;-36
2021/11/13 12:01:26;;;;;;;;;;;;;;;19.60;61.27;101577.94;5123984;27;1998;-36
2021/11/13 12:04:11;;;;;;;;;;;;;;;19.53;60.50;101568.63;5127518;27;1806;-36
2021/11/13 12:06:42;;;;;;;;;;;;;;;19.90;60.32;101573.84;5122198;27;1549;-36
2021/11/13 12:09:11;;;;;;;;;;;;;;;20.01;60.86;101568.44;5133129;27;1528;-36
2021/11/13 12:11:38;;;;;;;;;;;;;;;19.70;59.96;101560.13;5131188;27;1746;-36
2021/11/13 12:14:27;;;;;;;;;;;;;;;19.48;61.71;101561.81;5132051;27;1756;-36
2021/11/13 12:16:57;;;;;;;;;;;;;;;19.98;59.39;101574.09;5133947;27;1070;-36
2021/11/13 12:19:26;;;;;;;;;;;;;;;20.08;60.29;101576.88;5132081;27;1874;-36
2021/11/13 12:21:56;;;;;;;;;;;;;;;19.69;60.19;101563.78;5126113;27;1905;-36
2021/11/13 12:24:23;;;;;;;;;;;;;;;19.56;61.75;101568.41;5127256;27;1765;-36
2021/11/13 12:26:59;;;;;;;;;;;;;;;19.98;60.69;101568.72;5130310;27;1662;-36
2021/11/13 12:29:25;;;;;;;;;;;;;;;19.95;60.25;101559.06;5129642;27;1806;-36
2021/11/13 12:31:56;;;;;;;;;;;;;;;19.69;61.12;101558.41;5126496;27;1546;-36
2021/11/13 12:34:29;;;;;;;;;;;;;;;19.59;61.30;101568.16;5126654;27;1590;-36
2021/11/13 12:36:59;;;;;;;;;;;;;;;19.91;60.25;101562.13;5127447;27;1607;-36
2021/11/13 12:39:26;;;;;;;;;;;;;;;20.11;59.46;101564.03;5127482;27;2051;-36
2021/11/13 12:41:58;;;;;;;;;;;;;;;19.80;59.99;101561.13;5129707;27;1948;-36
2021/11/13 12:44:36;;;;;;;;;;;;;;;19.64;61.46;101556.09;5017887;27;13560;-36
2021/11/13 12:49:50;;;;;;;;;;;;;;;20.04;59.83;101536.84;5099978;28;2297;-36
2021/11/13 12:55:25;;;;;;;;;;;;;;;19.39;62.88;101556.28;5107100;28;1574;-36
2021/11/13 12:58:01;;;;;;;;;;;;;;;19.74;61.19;101550.88;5097023;28;1077;-36
2021/11/13 13:03:21;;;;;;;;;;;;;;;19.65;61.66;101535.47;5087319;28;2346;-36
2021/11/13 13:05:49;;;;;;;;;;;;;;;19.47;62.41;101530.56;5064396;28;10971;-36
2021/11/13 13:08:22;;;;;;;;;;;;;;;19.86;61.08;101544.53;5048897;28;1697;-37
2021/11/13 13:10:49;;;;;;;;;;;;;;;20.01;61.31;101541.59;5065340;28;1594;-36